sensor_id;sensor_type;location;lat;lon;timestamp;temperature;humidity
30304;DHT22;17112;48.636;10.152;2022-12-18T00:01:29;-3.60;68.00
30304;DHT22;17112;48.636;10.152;2022-12-18T00:03:57;-3.60;68.00
30304;DHT22;17112;48.636;10.152;2022-12-18T00:06:24;-3.60;67.90
30304;DHT22;17112;48.636;10.152;2022-12-18T00:08:50;-3.60;68.00
30304;DHT22;17112;48.636;10.152;2022-12-18T00:11:19;-3.60;68.00
30304;DHT22;17112;48.636;10.152;2022-12-18T00:13:45;-3.60;68.00
30304;DHT22;17112;48.636;10.152;2022-12-18T00:16:14;-3.40;68.10
30304;DHT22;17112;48.636;10.152;2022-12-18T00:18:41;-3.60;67.90
30304;DHT22;17112;48.636;10.152;2022-12-18T00:21:08;-3.60;68.00
30304;DHT22;17112;48.636;10.152;2022-12-18T00:23:35;-3.60;68.10
30304;DHT22;17112;48.636;10.152;2022-12-18T00:26:04;-3.60;68.20
30304;DHT22;17112;48.636;10.152;2022-12-18T00:28:30;-3.60;68.20
30304;DHT22;17112;48.636;10.152;2022-12-18T00:31:18;-3.60;68.20
30304;DHT22;17112;48.636;10.152;2022-12-18T00:33:44;-3.60;68.50
30304;DHT22;17112;48.636;10.152;2022-12-18T00:38:37;-3.60;68.40
30304;DHT22;17112;48.636;10.152;2022-12-18T00:41:03;-3.60;68.30
30304;DHT22;17112;48.636;10.152;2022-12-18T00:43:29;-3.60;68.30
30304;DHT22;17112;48.636;10.152;2022-12-18T00:45:55;-3.60;68.40
30304;DHT22;17112;48.636;10.152;2022-12-18T00:48:21;-3.60;68.50
30304;DHT22;17112;48.636;10.152;2022-12-18T00:50:49;-3.60;68.50
30304;DHT22;17112;48.636;10.152;2022-12-18T00:53:16;-3.60;68.60
30304;DHT22;17112;48.636;10.152;2022-12-18T00:55:42;-3.50;68.70
30304;DHT22;17112;48.636;10.152;2022-12-18T00:58:09;-3.50;68.70
30304;DHT22;17112;48.636;10.152;2022-12-18T01:00:35;-3.50;68.60
30304;DHT22;17112;48.636;10.152;2022-12-18T01:03:01;-3.50;68.50
30304;DHT22;17112;48.636;10.152;2022-12-18T01:05:27;-3.50;68.50
30304;DHT22;17112;48.636;10.152;2022-12-18T01:07:53;-3.50;68.30
30304;DHT22;17112;48.636;10.152;2022-12-18T01:10:19;-3.60;68.30
30304;DHT22;17112;48.636;10.152;2022-12-18T01:12:44;-3.60;68.30
30304;DHT22;17112;48.636;10.152;2022-12-18T01:15:12;-3.60;68.40
30304;DHT22;17112;48.636;10.152;2022-12-18T01:17:38;-3.60;68.40
30304;DHT22;17112;48.636;10.152;2022-12-18T01:20:05;-3.50;68.40
30304;DHT22;17112;48.636;10.152;2022-12-18T01:22:31;-3.60;68.40
30304;DHT22;17112;48.636;10.152;2022-12-18T01:24:56;-3.70;68.50
30304;DHT22;17112;48.636;10.152;2022-12-18T01:27:22;-3.70;68.50
30304;DHT22;17112;48.636;10.152;2022-12-18T01:29:49;-3.70;68.50
30304;DHT22;17112;48.636;10.152;2022-12-18T01:32:14;-3.70;68.50
30304;DHT22;17112;48.636;10.152;2022-12-18T01:34:40;-3.70;68.50
30304;DHT22;17112;48.636;10.152;2022-12-18T01:37:06;-3.50;68.60
30304;DHT22;17112;48.636;10.152;2022-12-18T01:39:32;-3.60;68.50
30304;DHT22;17112;48.636;10.152;2022-12-18T01:41:59;-3.40;68.80
30304;DHT22;17112;48.636;10.152;2022-12-18T01:47:26;-3.60;68.70
30304;DHT22;17112;48.636;10.152;2022-12-18T01:49:54;-3.60;69.10
30304;DHT22;17112;48.636;10.152;2022-12-18T01:52:21;-3.50;68.30
30304;DHT22;17112;48.636;10.152;2022-12-18T01:54:48;-3.60;68.10
30304;DHT22;17112;48.636;10.152;2022-12-18T01:57:16;-3.70;68.30
30304;DHT22;17112;48.636;10.152;2022-12-18T01:59:43;-3.70;68.50
30304;DHT22;17112;48.636;10.152;2022-12-18T02:02:11;-3.70;68.50
30304;DHT22;17112;48.636;10.152;2022-12-18T02:04:37;-3.70;68.60
30304;DHT22;17112;48.636;10.152;2022-12-18T02:12:58;-3.60;68.80
30304;DHT22;17112;48.636;10.152;2022-12-18T02:15:51;-3.60;68.80
30304;DHT22;17112;48.636;10.152;2022-12-18T02:18:35;-3.60;68.80
30304;DHT22;17112;48.636;10.152;2022-12-18T02:21:29;-3.60;68.70
30304;DHT22;17112;48.636;10.152;2022-12-18T02:24:18;-3.60;68.80
30304;DHT22;17112;48.636;10.152;2022-12-18T02:27:03;-3.60;68.80
30304;DHT22;17112;48.636;10.152;2022-12-18T02:29:34;-3.60;68.60
30304;DHT22;17112;48.636;10.152;2022-12-18T02:32:06;-3.60;68.50
30304;DHT22;17112;48.636;10.152;2022-12-18T02:34:34;-3.60;68.60
30304;DHT22;17112;48.636;10.152;2022-12-18T02:37:05;-3.60;68.80
30304;DHT22;17112;48.636;10.152;2022-12-18T02:39:34;-3.60;68.80
30304;DHT22;17112;48.636;10.152;2022-12-18T02:42:00;-3.60;69.10
30304;DHT22;17112;48.636;10.152;2022-12-18T02:44:33;-3.60;68.90
30304;DHT22;17112;48.636;10.152;2022-12-18T02:46:59;-3.60;69.00
30304;DHT22;17112;48.636;10.152;2022-12-18T02:57:58;-3.60;69.40
30304;DHT22;17112;48.636;10.152;2022-12-18T03:03:43;-3.50;69.70
30304;DHT22;17112;48.636;10.152;2022-12-18T03:06:39;-3.40;69.60
30304;DHT22;17112;48.636;10.152;2022-12-18T03:09:14;-3.40;69.70
30304;DHT22;17112;48.636;10.152;2022-12-18T03:11:46;-3.40;69.40
30304;DHT22;17112;48.636;10.152;2022-12-18T03:14:34;-3.30;69.50
30304;DHT22;17112;48.636;10.152;2022-12-18T03:17:04;-3.30;69.50
30304;DHT22;17112;48.636;10.152;2022-12-18T03:19:32;-3.30;69.40
30304;DHT22;17112;48.636;10.152;2022-12-18T03:22:01;-3.20;69.50
30304;DHT22;17112;48.636;10.152;2022-12-18T03:24:29;-3.10;69.50
30304;DHT22;17112;48.636;10.152;2022-12-18T03:27:02;-3.20;69.50
30304;DHT22;17112;48.636;10.152;2022-12-18T03:32:16;-3.10;69.70
30304;DHT22;17112;48.636;10.152;2022-12-18T03:34:46;-3.10;69.50
30304;DHT22;17112;48.636;10.152;2022-12-18T03:37:14;-3.00;69.50
30304;DHT22;17112;48.636;10.152;2022-12-18T03:39:40;-3.00;69.40
30304;DHT22;17112;48.636;10.152;2022-12-18T03:45:09;-3.00;69.40
30304;DHT22;17112;48.636;10.152;2022-12-18T03:47:58;-2.80;69.40
30304;DHT22;17112;48.636;10.152;2022-12-18T03:53:01;-2.70;69.50
30304;DHT22;17112;48.636;10.152;2022-12-18T03:55:32;-2.80;69.30
30304;DHT22;17112;48.636;10.152;2022-12-18T03:58:01;-2.90;69.20
30304;DHT22;17112;48.636;10.152;2022-12-18T04:00:29;-2.90;69.20
30304;DHT22;17112;48.636;10.152;2022-12-18T04:02:56;-2.70;69.30
30304;DHT22;17112;48.636;10.152;2022-12-18T04:05:26;-2.70;69.20
30304;DHT22;17112;48.636;10.152;2022-12-18T04:07:53;-2.90;69.10
30304;DHT22;17112;48.636;10.152;2022-12-18T04:10:20;-3.00;69.00
30304;DHT22;17112;48.636;10.152;2022-12-18T04:12:45;-3.00;69.00
30304;DHT22;17112;48.636;10.152;2022-12-18T04:15:12;-2.90;69.20
30304;DHT22;17112;48.636;10.152;2022-12-18T04:17:39;-2.90;69.30
30304;DHT22;17112;48.636;10.152;2022-12-18T04:20:08;-2.70;69.30
30304;DHT22;17112;48.636;10.152;2022-12-18T04:22:34;-2.80;69.30
30304;DHT22;17112;48.636;10.152;2022-12-18T04:25:01;-2.90;69.30
30304;DHT22;17112;48.636;10.152;2022-12-18T04:27:26;-2.90;69.30
30304;DHT22;17112;48.636;10.152;2022-12-18T04:29:52;-2.90;69.40
30304;DHT22;17112;48.636;10.152;2022-12-18T04:32:17;-2.90;69.40
30304;DHT22;17112;48.636;10.152;2022-12-18T04:34:43;-2.80;69.40
30304;DHT22;17112;48.636;10.152;2022-12-18T04:37:09;-2.90;69.50
30304;DHT22;17112;48.636;10.152;2022-12-18T04:39:34;-2.80;69.50
30304;DHT22;17112;48.636;10.152;2022-12-18T04:42:01;-2.90;69.40
30304;DHT22;17112;48.636;10.152;2022-12-18T04:44:26;-2.80;69.40
30304;DHT22;17112;48.636;10.152;2022-12-18T04:46:52;-2.80;69.40
30304;DHT22;17112;48.636;10.152;2022-12-18T04:49:18;-2.80;69.30
30304;DHT22;17112;48.636;10.152;2022-12-18T04:51:43;-2.80;69.30
30304;DHT22;17112;48.636;10.152;2022-12-18T04:54:09;-2.80;69.20
30304;DHT22;17112;48.636;10.152;2022-12-18T04:56:35;-2.80;69.20
30304;DHT22;17112;48.636;10.152;2022-12-18T04:59:00;-2.80;69.20
30304;DHT22;17112;48.636;10.152;2022-12-18T05:01:26;-2.80;69.20
30304;DHT22;17112;48.636;10.152;2022-12-18T05:03:52;-2.90;69.10
30304;DHT22;17112;48.636;10.152;2022-12-18T05:06:18;-2.80;69.20
30304;DHT22;17112;48.636;10.152;2022-12-18T05:08:43;-2.80;69.30
30304;DHT22;17112;48.636;10.152;2022-12-18T05:11:11;-2.80;69.30
30304;DHT22;17112;48.636;10.152;2022-12-18T05:13:39;-2.80;69.20
30304;DHT22;17112;48.636;10.152;2022-12-18T05:16:05;-2.80;69.10
30304;DHT22;17112;48.636;10.152;2022-12-18T05:18:31;-2.80;69.80
30304;DHT22;17112;48.636;10.152;2022-12-18T05:20:57;-2.80;69.00
30304;DHT22;17112;48.636;10.152;2022-12-18T05:23:24;-2.60;69.20
30304;DHT22;17112;48.636;10.152;2022-12-18T05:25:57;-2.80;69.20
30304;DHT22;17112;48.636;10.152;2022-12-18T05:28:24;-2.80;69.40
30304;DHT22;17112;48.636;10.152;2022-12-18T05:30:55;-2.80;69.80
30304;DHT22;17112;48.636;10.152;2022-12-18T05:33:23;-2.80;69.10
30304;DHT22;17112;48.636;10.152;2022-12-18T05:35:53;-2.80;69.00
30304;DHT22;17112;48.636;10.152;2022-12-18T05:38:20;-2.80;69.00
30304;DHT22;17112;48.636;10.152;2022-12-18T05:40:47;-2.80;68.90
30304;DHT22;17112;48.636;10.152;2022-12-18T05:43:13;-2.80;68.90
30304;DHT22;17112;48.636;10.152;2022-12-18T05:45:39;-2.80;69.10
30304;DHT22;17112;48.636;10.152;2022-12-18T05:48:06;-2.80;69.10
30304;DHT22;17112;48.636;10.152;2022-12-18T05:50:38;-2.80;69.20
30304;DHT22;17112;48.636;10.152;2022-12-18T05:53:05;-2.80;69.20
30304;DHT22;17112;48.636;10.152;2022-12-18T05:55:39;-2.90;69.30
30304;DHT22;17112;48.636;10.152;2022-12-18T05:58:06;-2.90;69.50
30304;DHT22;17112;48.636;10.152;2022-12-18T06:00:36;-2.90;69.50
30304;DHT22;17112;48.636;10.152;2022-12-18T06:03:09;-2.90;69.50
30304;DHT22;17112;48.636;10.152;2022-12-18T06:05:36;-2.80;69.60
30304;DHT22;17112;48.636;10.152;2022-12-18T06:08:02;-2.80;69.70
30304;DHT22;17112;48.636;10.152;2022-12-18T06:10:28;-2.80;69.60
30304;DHT22;17112;48.636;10.152;2022-12-18T06:12:54;-2.80;69.70
30304;DHT22;17112;48.636;10.152;2022-12-18T06:15:19;-2.80;69.70
30304;DHT22;17112;48.636;10.152;2022-12-18T06:17:45;-2.80;69.90
30304;DHT22;17112;48.636;10.152;2022-12-18T06:20:11;-2.90;69.70
30304;DHT22;17112;48.636;10.152;2022-12-18T06:22:36;-2.80;70.10
30304;DHT22;17112;48.636;10.152;2022-12-18T06:25:03;-2.80;69.80
30304;DHT22;17112;48.636;10.152;2022-12-18T06:27:28;-2.80;70.00
30304;DHT22;17112;48.636;10.152;2022-12-18T06:29:54;-2.80;70.00
30304;DHT22;17112;48.636;10.152;2022-12-18T06:32:20;-2.60;70.30
30304;DHT22;17112;48.636;10.152;2022-12-18T06:34:45;-2.80;70.10
30304;DHT22;17112;48.636;10.152;2022-12-18T06:37:11;-2.70;70.20
30304;DHT22;17112;48.636;10.152;2022-12-18T06:39:37;-2.80;70.30
30304;DHT22;17112;48.636;10.152;2022-12-18T06:42:03;-2.60;70.30
30304;DHT22;17112;48.636;10.152;2022-12-18T06:44:29;-2.80;70.10
30304;DHT22;17112;48.636;10.152;2022-12-18T06:46:55;-2.80;70.30
30304;DHT22;17112;48.636;10.152;2022-12-18T06:49:20;-2.70;70.10
30304;DHT22;17112;48.636;10.152;2022-12-18T06:51:46;-2.70;70.20
30304;DHT22;17112;48.636;10.152;2022-12-18T06:54:12;-2.70;70.10
30304;DHT22;17112;48.636;10.152;2022-12-18T06:56:38;-2.70;70.20
30304;DHT22;17112;48.636;10.152;2022-12-18T06:59:04;-2.60;70.20
30304;DHT22;17112;48.636;10.152;2022-12-18T07:01:29;-2.70;70.00
30304;DHT22;17112;48.636;10.152;2022-12-18T07:03:56;-2.70;70.80
30304;DHT22;17112;48.636;10.152;2022-12-18T07:06:24;-2.70;70.10
30304;DHT22;17112;48.636;10.152;2022-12-18T07:08:51;-2.40;70.60
30304;DHT22;17112;48.636;10.152;2022-12-18T07:11:18;-2.70;70.20
30304;DHT22;17112;48.636;10.152;2022-12-18T07:13:44;-2.70;70.00
30304;DHT22;17112;48.636;10.152;2022-12-18T07:16:18;-2.70;70.30
30304;DHT22;17112;48.636;10.152;2022-12-18T07:18:44;-2.70;70.10
30304;DHT22;17112;48.636;10.152;2022-12-18T07:21:13;-2.70;70.20
30304;DHT22;17112;48.636;10.152;2022-12-18T07:23:39;-2.70;70.30
30304;DHT22;17112;48.636;10.152;2022-12-18T07:26:10;-2.60;70.50
30304;DHT22;17112;48.636;10.152;2022-12-18T07:28:37;-2.40;70.60
30304;DHT22;17112;48.636;10.152;2022-12-18T07:31:08;-2.40;70.70
30304;DHT22;17112;48.636;10.152;2022-12-18T07:33:35;-2.60;70.60
30304;DHT22;17112;48.636;10.152;2022-12-18T07:36:02;-2.60;70.50
30304;DHT22;17112;48.636;10.152;2022-12-18T07:38:29;-2.50;70.70
30304;DHT22;17112;48.636;10.152;2022-12-18T07:41:06;-2.30;70.80
30304;DHT22;17112;48.636;10.152;2022-12-18T07:43:33;-2.50;70.80
30304;DHT22;17112;48.636;10.152;2022-12-18T07:45:59;-2.50;70.70
30304;DHT22;17112;48.636;10.152;2022-12-18T07:48:26;-2.40;70.60
30304;DHT22;17112;48.636;10.152;2022-12-18T07:50:53;-2.40;70.70
30304;DHT22;17112;48.636;10.152;2022-12-18T07:53:19;-2.40;70.80
30304;DHT22;17112;48.636;10.152;2022-12-18T07:55:45;-2.30;70.50
30304;DHT22;17112;48.636;10.152;2022-12-18T07:58:10;-2.10;70.50
30304;DHT22;17112;48.636;10.152;2022-12-18T08:00:36;-2.10;70.50
30304;DHT22;17112;48.636;10.152;2022-12-18T08:03:02;-2.30;70.50
30304;DHT22;17112;48.636;10.152;2022-12-18T08:05:28;-2.30;71.30
30304;DHT22;17112;48.636;10.152;2022-12-18T08:07:54;-2.00;70.70
30304;DHT22;17112;48.636;10.152;2022-12-18T08:10:20;-2.20;70.50
30304;DHT22;17112;48.636;10.152;2022-12-18T08:12:49;-2.10;70.70
30304;DHT22;17112;48.636;10.152;2022-12-18T08:15:15;-2.10;70.50
30304;DHT22;17112;48.636;10.152;2022-12-18T08:17:41;-2.10;70.50
30304;DHT22;17112;48.636;10.152;2022-12-18T08:20:07;-2.10;70.40
30304;DHT22;17112;48.636;10.152;2022-12-18T08:22:34;-2.00;70.30
30304;DHT22;17112;48.636;10.152;2022-12-18T08:25:01;-2.00;70.40
30304;DHT22;17112;48.636;10.152;2022-12-18T08:27:27;-2.00;71.20
30304;DHT22;17112;48.636;10.152;2022-12-18T08:29:52;-1.90;70.40
30304;DHT22;17112;48.636;10.152;2022-12-18T08:32:18;-1.90;70.30
30304;DHT22;17112;48.636;10.152;2022-12-18T08:34:44;-1.90;70.40
30304;DHT22;17112;48.636;10.152;2022-12-18T08:37:09;-1.80;70.40
30304;DHT22;17112;48.636;10.152;2022-12-18T08:39:35;-1.80;70.40
30304;DHT22;17112;48.636;10.152;2022-12-18T08:42:00;-1.70;70.40
30304;DHT22;17112;48.636;10.152;2022-12-18T08:44:45;-1.70;70.40
30304;DHT22;17112;48.636;10.152;2022-12-18T08:47:11;-1.60;70.30
30304;DHT22;17112;48.636;10.152;2022-12-18T08:49:36;-1.60;70.20
30304;DHT22;17112;48.636;10.152;2022-12-18T08:52:02;-1.30;70.30
30304;DHT22;17112;48.636;10.152;2022-12-18T08:54:28;-1.50;69.90
30304;DHT22;17112;48.636;10.152;2022-12-18T08:56:54;-1.40;69.80
30304;DHT22;17112;48.636;10.152;2022-12-18T08:59:20;-1.40;69.60
30304;DHT22;17112;48.636;10.152;2022-12-18T09:01:46;-1.30;69.60
30304;DHT22;17112;48.636;10.152;2022-12-18T09:04:12;-1.40;69.50
30304;DHT22;17112;48.636;10.152;2022-12-18T09:06:38;-1.30;69.60
30304;DHT22;17112;48.636;10.152;2022-12-18T09:09:04;-1.30;69.50
30304;DHT22;17112;48.636;10.152;2022-12-18T09:11:30;-1.30;69.40
30304;DHT22;17112;48.636;10.152;2022-12-18T09:13:57;-1.30;69.30
30304;DHT22;17112;48.636;10.152;2022-12-18T09:16:24;-1.30;69.30
30304;DHT22;17112;48.636;10.152;2022-12-18T09:18:50;-1.20;69.50
30304;DHT22;17112;48.636;10.152;2022-12-18T09:21:18;-1.20;69.50
30304;DHT22;17112;48.636;10.152;2022-12-18T09:23:48;-1.00;69.40
30304;DHT22;17112;48.636;10.152;2022-12-18T09:26:14;-1.20;69.20
30304;DHT22;17112;48.636;10.152;2022-12-18T09:28:40;-1.20;69.10
30304;DHT22;17112;48.636;10.152;2022-12-18T09:31:07;-1.10;69.20
30304;DHT22;17112;48.636;10.152;2022-12-18T09:33:35;-0.90;69.50
30304;DHT22;17112;48.636;10.152;2022-12-18T09:36:03;-1.10;69.30
30304;DHT22;17112;48.636;10.152;2022-12-18T09:38:28;-1.00;69.30
30304;DHT22;17112;48.636;10.152;2022-12-18T09:40:59;-1.00;69.30
30304;DHT22;17112;48.636;10.152;2022-12-18T09:46:00;-0.90;69.20
30304;DHT22;17112;48.636;10.152;2022-12-18T09:48:48;-0.90;69.00
30304;DHT22;17112;48.636;10.152;2022-12-18T09:51:30;-0.90;68.80
30304;DHT22;17112;48.636;10.152;2022-12-18T09:54:03;-0.90;68.80
30304;DHT22;17112;48.636;10.152;2022-12-18T09:56:35;-0.90;68.80
30304;DHT22;17112;48.636;10.152;2022-12-18T09:59:03;-0.80;69.00
30304;DHT22;17112;48.636;10.152;2022-12-18T10:01:30;-0.80;69.00
30304;DHT22;17112;48.636;10.152;2022-12-18T10:03:57;-0.80;69.00
30304;DHT22;17112;48.636;10.152;2022-12-18T10:06:46;-0.60;69.10
30304;DHT22;17112;48.636;10.152;2022-12-18T10:09:37;-0.70;68.90
30304;DHT22;17112;48.636;10.152;2022-12-18T10:15:01;-0.60;68.70
30304;DHT22;17112;48.636;10.152;2022-12-18T10:20:43;-0.60;68.50
30304;DHT22;17112;48.636;10.152;2022-12-18T10:26:03;-0.60;68.60
30304;DHT22;17112;48.636;10.152;2022-12-18T10:28:31;-0.60;68.70
30304;DHT22;17112;48.636;10.152;2022-12-18T10:30:58;-0.50;68.80
30304;DHT22;17112;48.636;10.152;2022-12-18T10:33:28;-0.50;68.80
30304;DHT22;17112;48.636;10.152;2022-12-18T10:35:55;-0.40;68.70
30304;DHT22;17112;48.636;10.152;2022-12-18T10:38:27;-0.50;68.60
30304;DHT22;17112;48.636;10.152;2022-12-18T10:41:14;-0.40;68.60
30304;DHT22;17112;48.636;10.152;2022-12-18T10:44:19;-0.40;68.70
30304;DHT22;17112;48.636;10.152;2022-12-18T10:46:48;-0.40;68.70
30304;DHT22;17112;48.636;10.152;2022-12-18T10:49:26;-0.40;68.60
30304;DHT22;17112;48.636;10.152;2022-12-18T10:52:05;-0.40;68.50
30304;DHT22;17112;48.636;10.152;2022-12-18T10:54:33;-0.30;68.60
30304;DHT22;17112;48.636;10.152;2022-12-18T10:57:38;-0.30;68.50
30304;DHT22;17112;48.636;10.152;2022-12-18T11:00:29;-0.30;68.60
30304;DHT22;17112;48.636;10.152;2022-12-18T11:02:55;-0.20;68.70
30304;DHT22;17112;48.636;10.152;2022-12-18T11:05:26;-0.20;68.70
30304;DHT22;17112;48.636;10.152;2022-12-18T11:07:51;-0.10;68.80
30304;DHT22;17112;48.636;10.152;2022-12-18T11:10:28;-0.10;68.80
30304;DHT22;17112;48.636;10.152;2022-12-18T11:12:56;0.00;68.70
30304;DHT22;17112;48.636;10.152;2022-12-18T11:15:26;0.00;68.50
30304;DHT22;17112;48.636;10.152;2022-12-18T11:17:53;0.10;68.50
30304;DHT22;17112;48.636;10.152;2022-12-18T11:20:32;0.10;68.50
30304;DHT22;17112;48.636;10.152;2022-12-18T11:23:04;0.10;68.40
30304;DHT22;17112;48.636;10.152;2022-12-18T11:25:32;0.20;68.30
30304;DHT22;17112;48.636;10.152;2022-12-18T11:28:04;0.20;68.10
30304;DHT22;17112;48.636;10.152;2022-12-18T11:30:35;0.20;68.10
30304;DHT22;17112;48.636;10.152;2022-12-18T11:35:55;0.20;68.00
30304;DHT22;17112;48.636;10.152;2022-12-18T11:38:48;0.30;68.10
30304;DHT22;17112;48.636;10.152;2022-12-18T11:41:23;0.30;68.10
30304;DHT22;17112;48.636;10.152;2022-12-18T11:44:22;0.30;68.00
30304;DHT22;17112;48.636;10.152;2022-12-18T11:46:55;0.30;68.00
30304;DHT22;17112;48.636;10.152;2022-12-18T11:49:26;0.30;67.90
30304;DHT22;17112;48.636;10.152;2022-12-18T11:51:58;0.30;67.90
30304;DHT22;17112;48.636;10.152;2022-12-18T11:54:25;0.30;67.90
30304;DHT22;17112;48.636;10.152;2022-12-18T11:56:55;0.30;67.90
30304;DHT22;17112;48.636;10.152;2022-12-18T12:06:15;0.30;67.70
30304;DHT22;17112;48.636;10.152;2022-12-18T12:09:08;0.30;67.80
30304;DHT22;17112;48.636;10.152;2022-12-18T12:21:14;0.40;68.20
30304;DHT22;17112;48.636;10.152;2022-12-18T12:29:21;0.50;68.20
30304;DHT22;17112;48.636;10.152;2022-12-18T12:31:34;0.60;68.00
30304;DHT22;17112;48.636;10.152;2022-12-18T12:34:27;0.60;67.80
30304;DHT22;17112;48.636;10.152;2022-12-18T12:39:34;0.60;67.60
30304;DHT22;17112;48.636;10.152;2022-12-18T12:42:02;0.60;67.60
30304;DHT22;17112;48.636;10.152;2022-12-18T12:44:51;0.60;67.80
30304;DHT22;17112;48.636;10.152;2022-12-18T12:47:29;0.60;67.70
30304;DHT22;17112;48.636;10.152;2022-12-18T12:49:57;0.70;67.70
30304;DHT22;17112;48.636;10.152;2022-12-18T12:52:39;0.70;67.50
30304;DHT22;17112;48.636;10.152;2022-12-18T12:55:15;0.70;67.30
30304;DHT22;17112;48.636;10.152;2022-12-18T12:57:46;0.60;67.10
30304;DHT22;17112;48.636;10.152;2022-12-18T13:00:18;0.60;67.00
30304;DHT22;17112;48.636;10.152;2022-12-18T13:02:54;0.50;67.00
30304;DHT22;17112;48.636;10.152;2022-12-18T13:05:54;0.50;67.10
30304;DHT22;17112;48.636;10.152;2022-12-18T13:10:54;0.40;67.40
30304;DHT22;17112;48.636;10.152;2022-12-18T13:13:54;0.40;67.50
30304;DHT22;17112;48.636;10.152;2022-12-18T13:16:25;0.40;67.50
30304;DHT22;17112;48.636;10.152;2022-12-18T13:18:55;0.40;67.60
30304;DHT22;17112;48.636;10.152;2022-12-18T13:21:33;0.30;67.60
30304;DHT22;17112;48.636;10.152;2022-12-18T13:24:22;0.30;67.80
30304;DHT22;17112;48.636;10.152;2022-12-18T13:26:48;0.60;67.90
30304;DHT22;17112;48.636;10.152;2022-12-18T13:29:41;0.60;67.90
30304;DHT22;17112;48.636;10.152;2022-12-18T13:32:20;0.30;68.10
30304;DHT22;17112;48.636;10.152;2022-12-18T13:34:46;0.30;68.10
30304;DHT22;17112;48.636;10.152;2022-12-18T13:37:50;0.30;68.10
30304;DHT22;17112;48.636;10.152;2022-12-18T13:40:53;0.40;68.00
30304;DHT22;17112;48.636;10.152;2022-12-18T13:48:36;0.40;68.10
30304;DHT22;17112;48.636;10.152;2022-12-18T13:51:06;0.40;68.70
30304;DHT22;17112;48.636;10.152;2022-12-18T13:53:39;0.40;68.00
30304;DHT22;17112;48.636;10.152;2022-12-18T13:56:07;0.30;67.90
30304;DHT22;17112;48.636;10.152;2022-12-18T13:58:33;0.30;67.70
30304;DHT22;17112;48.636;10.152;2022-12-18T14:00:59;0.30;67.70
30304;DHT22;17112;48.636;10.152;2022-12-18T14:03:28;0.30;67.90
30304;DHT22;17112;48.636;10.152;2022-12-18T14:06:05;0.30;67.90
30304;DHT22;17112;48.636;10.152;2022-12-18T14:08:40;0.30;68.10
30304;DHT22;17112;48.636;10.152;2022-12-18T14:11:07;0.30;68.20
30304;DHT22;17112;48.636;10.152;2022-12-18T14:13:43;0.30;68.20
30304;DHT22;17112;48.636;10.152;2022-12-18T14:16:13;0.30;68.20
30304;DHT22;17112;48.636;10.152;2022-12-18T14:18:46;0.30;68.10
30304;DHT22;17112;48.636;10.152;2022-12-18T14:21:27;0.40;68.20
30304;DHT22;17112;48.636;10.152;2022-12-18T14:24:17;0.40;68.10
30304;DHT22;17112;48.636;10.152;2022-12-18T14:26:44;0.30;67.90
30304;DHT22;17112;48.636;10.152;2022-12-18T14:29:28;0.30;67.80
30304;DHT22;17112;48.636;10.152;2022-12-18T14:32:14;0.30;67.90
30304;DHT22;17112;48.636;10.152;2022-12-18T14:37:17;0.20;67.60
30304;DHT22;17112;48.636;10.152;2022-12-18T14:40:01;0.20;67.70
30304;DHT22;17112;48.636;10.152;2022-12-18T14:42:28;0.10;67.70
30304;DHT22;17112;48.636;10.152;2022-12-18T14:47:58;0.00;67.90
30304;DHT22;17112;48.636;10.152;2022-12-18T14:50:24;-0.10;67.80
30304;DHT22;17112;48.636;10.152;2022-12-18T14:52:50;-0.10;67.90
30304;DHT22;17112;48.636;10.152;2022-12-18T14:55:19;-0.20;68.10
30304;DHT22;17112;48.636;10.152;2022-12-18T14:57:51;-0.20;68.30
30304;DHT22;17112;48.636;10.152;2022-12-18T15:00:20;-0.30;68.40
30304;DHT22;17112;48.636;10.152;2022-12-18T15:02:56;-0.30;68.30
30304;DHT22;17112;48.636;10.152;2022-12-18T15:05:28;-0.30;68.40
30304;DHT22;17112;48.636;10.152;2022-12-18T15:07:56;-0.30;68.10
30304;DHT22;17112;48.636;10.152;2022-12-18T15:10:30;-0.40;68.30
30304;DHT22;17112;48.636;10.152;2022-12-18T15:20:46;-0.50;68.60
30304;DHT22;17112;48.636;10.152;2022-12-18T15:23:28;-0.40;68.80
30304;DHT22;17112;48.636;10.152;2022-12-18T15:26:00;-0.60;68.90
30304;DHT22;17112;48.636;10.152;2022-12-18T15:31:06;-0.60;69.40
30304;DHT22;17112;48.636;10.152;2022-12-18T15:33:44;-0.50;69.40
30304;DHT22;17112;48.636;10.152;2022-12-18T15:36:16;-0.70;69.40
30304;DHT22;17112;48.636;10.152;2022-12-18T15:38:46;-0.70;69.30
30304;DHT22;17112;48.636;10.152;2022-12-18T15:41:17;-0.70;69.50
30304;DHT22;17112;48.636;10.152;2022-12-18T15:43:44;-0.70;69.30
30304;DHT22;17112;48.636;10.152;2022-12-18T15:46:15;-0.70;69.40
30304;DHT22;17112;48.636;10.152;2022-12-18T15:48:48;-0.70;69.40
30304;DHT22;17112;48.636;10.152;2022-12-18T15:51:29;-0.70;69.20
30304;DHT22;17112;48.636;10.152;2022-12-18T15:53:59;-0.70;69.50
30304;DHT22;17112;48.636;10.152;2022-12-18T15:56:25;-0.70;69.30
30304;DHT22;17112;48.636;10.152;2022-12-18T15:59:15;-0.80;69.80
30304;DHT22;17112;48.636;10.152;2022-12-18T16:01:42;-0.80;69.30
30304;DHT22;17112;48.636;10.152;2022-12-18T16:04:12;-0.80;69.50
30304;DHT22;17112;48.636;10.152;2022-12-18T16:06:39;-0.80;69.70
30304;DHT22;17112;48.636;10.152;2022-12-18T16:09:05;-0.80;69.80
30304;DHT22;17112;48.636;10.152;2022-12-18T16:11:32;-0.80;69.80
30304;DHT22;17112;48.636;10.152;2022-12-18T16:16:39;-0.80;69.80
30304;DHT22;17112;48.636;10.152;2022-12-18T16:19:05;-0.80;69.80
30304;DHT22;17112;48.636;10.152;2022-12-18T16:21:31;-0.80;69.60
30304;DHT22;17112;48.636;10.152;2022-12-18T16:23:56;-0.60;69.60
30304;DHT22;17112;48.636;10.152;2022-12-18T16:26:22;-0.80;69.50
30304;DHT22;17112;48.636;10.152;2022-12-18T16:28:47;-0.80;69.40
30304;DHT22;17112;48.636;10.152;2022-12-18T16:31:13;-0.90;69.60
30304;DHT22;17112;48.636;10.152;2022-12-18T16:33:39;-0.90;69.60
30304;DHT22;17112;48.636;10.152;2022-12-18T16:36:04;-0.70;69.80
30304;DHT22;17112;48.636;10.152;2022-12-18T16:38:30;-0.90;69.80
30304;DHT22;17112;48.636;10.152;2022-12-18T16:40:56;-0.70;70.00
30304;DHT22;17112;48.636;10.152;2022-12-18T16:43:40;-0.90;69.90
30304;DHT22;17112;48.636;10.152;2022-12-18T16:46:06;-0.70;69.90
30304;DHT22;17112;48.636;10.152;2022-12-18T16:48:31;-0.90;69.80
30304;DHT22;17112;48.636;10.152;2022-12-18T16:51:01;-0.90;69.90
30304;DHT22;17112;48.636;10.152;2022-12-18T16:53:27;-0.90;69.70
30304;DHT22;17112;48.636;10.152;2022-12-18T16:55:56;-0.90;69.80
30304;DHT22;17112;48.636;10.152;2022-12-18T16:58:22;-0.90;69.90
30304;DHT22;17112;48.636;10.152;2022-12-18T17:00:48;-1.00;70.10
30304;DHT22;17112;48.636;10.152;2022-12-18T17:03:13;-0.80;70.30
30304;DHT22;17112;48.636;10.152;2022-12-18T17:05:39;-1.00;70.20
30304;DHT22;17112;48.636;10.152;2022-12-18T17:08:05;-0.90;70.30
30304;DHT22;17112;48.636;10.152;2022-12-18T17:10:31;-0.90;70.50
30304;DHT22;17112;48.636;10.152;2022-12-18T17:13:14;-0.90;70.30